Time;durP1;ratioP1;P1;durP2;ratioP2;P2;SDS_P1;SDS_P2;PMS_P1;PMS_P2;Temp;Humidity;BMP_temperature;BMP_pressure;BME280_temperature;BME280_humidity;BME280_pressure;Samples;Min_cycle;Max_cycle;Signal;HPM_P1;HPM_P2
2023/01/25 00:01:31;;;;;;;24.33;11.68;;;1.10;99.90;;;;;;4171044;28;20105;-81
2023/01/25 00:03:34;;;;;;;22.75;10.75;;;0.50;99.90;;;;;;4170621;28;20037;-81
2023/01/25 00:05:35;;;;;;;23.95;11.55;;;0.60;99.90;;;;;;4169689;28;20049;-81
2023/01/25 00:07:38;;;;;;;23.58;10.38;;;1.30;99.90;;;;;;4170412;28;20045;-81
2023/01/25 00:09:40;;;;;;;22.98;9.90;;;1.00;99.90;;;;;;4169941;28;20096;-81
2023/01/25 00:11:43;;;;;;;24.00;11.15;;;1.40;99.90;;;;;;4175869;28;20481;-82
2023/01/25 00:13:43;;;;;;;22.15;10.15;;;1.30;99.90;;;;;;4169513;28;20064;-82
2023/01/25 00:15:44;;;;;;;25.33;11.43;;;1.30;99.90;;;;;;4170513;28;20073;-82
2023/01/25 00:17:46;;;;;;;21.38;11.00;;;0.70;99.90;;;;;;4169176;28;20053;-81
2023/01/25 00:19:46;;;;;;;22.63;10.55;;;1.00;99.90;;;;;;4152564;28;20053;-82
2023/01/25 00:21:48;;;;;;;23.27;10.90;;;0.70;99.90;;;;;;4169079;28;20048;-82
2023/01/25 00:23:51;;;;;;;22.65;11.70;;;0.70;99.90;;;;;;4170668;28;20564;-81
2023/01/25 00:25:58;;;;;;;24.38;11.73;;;0.70;99.90;;;;;;4153317;28;20045;-82
2023/01/25 00:27:59;;;;;;;26.20;11.07;;;0.60;99.90;;;;;;4173397;28;20124;-81
2023/01/25 00:30:01;;;;;;;21.63;11.00;;;0.60;99.90;;;;;;4185543;28;20049;-81
2023/01/25 00:32:05;;;;;;;21.75;10.77;;;0.60;99.90;;;;;;4186352;28;20045;-81
2023/01/25 00:34:25;;;;;;;25.73;11.50;;;0.50;99.90;;;;;;4186509;28;20568;-81
2023/01/25 00:36:35;;;;;;;22.55;9.93;;;1.50;99.90;;;;;;4186301;28;20068;-82
2023/01/25 00:38:37;;;;;;;24.45;11.20;;;-0.30;99.90;;;;;;4184765;28;20582;-82
2023/01/25 00:40:39;;;;;;;25.08;11.88;;;0.60;99.90;;;;;;4186773;28;20465;-82
2023/01/25 00:42:40;;;;;;;24.38;11.27;;;0.70;99.90;;;;;;4185289;28;20478;-82
2023/01/25 00:44:41;;;;;;;25.35;10.85;;;2.50;99.90;;;;;;4185720;28;20045;-82
2023/01/25 00:46:43;;;;;;;22.23;10.77;;;1.00;99.90;;;;;;4186560;28;20041;-82
2023/01/25 00:48:45;;;;;;;26.42;11.88;;;1.20;99.90;;;;;;4168624;28;20529;-82
2023/01/25 00:50:47;;;;;;;22.48;11.30;;;1.40;99.90;;;;;;4186674;28;20052;-81
2023/01/25 00:52:49;;;;;;;28.35;12.15;;;1.40;99.90;;;;;;4187013;28;20044;-82
2023/01/25 00:54:50;;;;;;;29.20;11.90;;;0.40;99.90;;;;;;4186132;28;20049;-81
2023/01/25 00:56:52;;;;;;;26.35;11.85;;;0.60;99.90;;;;;;4186662;28;20073;-82
2023/01/25 00:58:55;;;;;;;26.50;11.52;;;0.60;99.90;;;;;;4186070;28;20126;-82
2023/01/25 01:00:57;;;;;;;29.77;13.05;;;0.60;99.90;;;;;;4186025;28;20037;-82
2023/01/25 01:03:00;;;;;;;26.25;12.15;;;1.20;99.90;;;;;;4185485;28;20090;-81
2023/01/25 01:05:01;;;;;;;26.45;11.45;;;1.70;99.90;;;;;;4164199;28;20049;-82
2023/01/25 01:07:03;;;;;;;24.63;11.80;;;0.60;99.90;;;;;;4170484;28;20128;-82
2023/01/25 01:09:06;;;;;;;24.35;10.90;;;0.90;99.90;;;;;;4186018;28;20033;-82
2023/01/25 01:11:10;;;;;;;23.38;11.60;;;-0.80;99.90;;;;;;4168861;28;20580;-82
2023/01/25 01:13:11;;;;;;;25.90;10.98;;;0.60;99.90;;;;;;4169309;28;20038;-82
2023/01/25 01:15:14;;;;;;;21.38;10.32;;;1.60;99.90;;;;;;4151778;28;20054;-82
2023/01/25 01:17:15;;;;;;;24.73;11.40;;;0.60;99.90;;;;;;4169442;28;20128;-82
2023/01/25 01:19:18;;;;;;;24.67;11.23;;;0.70;99.90;;;;;;4185236;28;20489;-82
2023/01/25 01:21:20;;;;;;;24.58;10.63;;;0.60;99.90;;;;;;4173256;28;20112;-82
2023/01/25 01:23:22;;;;;;;24.08;10.57;;;1.30;99.90;;;;;;4185627;28;20037;-82
2023/01/25 01:25:23;;;;;;;26.27;10.52;;;1.90;99.90;;;;;;4186036;28;20089;-82
2023/01/25 01:27:24;;;;;;;26.42;11.50;;;0.40;99.90;;;;;;4186534;28;20122;-82
2023/01/25 01:29:24;;;;;;;23.50;10.45;;;0.30;99.90;;;;;;4185546;28;20429;-82
2023/01/25 01:31:26;;;;;;;25.92;10.88;;;0.40;99.90;;;;;;4164446;28;20050;-82
2023/01/25 01:33:28;;;;;;;26.30;10.25;;;0.20;99.90;;;;;;4168526;28;20046;-82
2023/01/25 01:35:30;;;;;;;29.17;12.05;;;0.60;99.90;;;;;;4170819;28;20044;-82
2023/01/25 01:37:32;;;;;;;29.95;12.20;;;0.30;99.90;;;;;;4171100;28;20063;-82
2023/01/25 01:39:34;;;;;;;30.10;12.75;;;0.30;99.90;;;;;;4177587;28;20071;-82
2023/01/25 01:41:36;;;;;;;28.88;10.95;;;0.80;99.90;;;;;;4179174;28;20190;-82
2023/01/25 01:43:40;;;;;;;26.42;10.75;;;0.30;99.90;;;;;;4185583;28;20053;-81
2023/01/25 01:45:48;;;;;;;29.40;12.13;;;0.30;99.90;;;;;;4185813;28;20532;-82
2023/01/25 01:47:50;;;;;;;28.92;12.77;;;2.20;99.90;;;;;;4185601;28;20430;-81
2023/01/25 01:50:00;;;;;;;27.55;12.30;;;1.90;99.90;;;;;;4186813;28;20045;-81
2023/01/25 01:52:12;;;;;;;30.58;13.27;;;0.20;99.90;;;;;;4185504;28;20053;-81
2023/01/25 01:54:25;;;;;;;29.50;12.93;;;0.20;99.90;;;;;;4169465;28;20120;-81
2023/01/25 01:56:37;;;;;;;30.63;12.60;;;-1.20;99.90;;;;;;4187559;28;20060;-81
2023/01/25 01:58:43;;;;;;;33.00;12.30;;;1.10;99.90;;;;;;4186498;28;20203;-82
2023/01/25 02:00:45;;;;;;;29.30;12.43;;;0.10;99.90;;;;;;4169200;28;20049;-82
2023/01/25 02:02:50;;;;;;;29.45;12.13;;;0.20;99.90;;;;;;4169496;28;20402;-81
2023/01/25 02:04:56;;;;;;;31.02;12.77;;;-0.40;99.90;;;;;;4169846;28;20092;-81
2023/01/25 02:07:12;;;;;;;29.27;12.88;;;0.10;99.90;;;;;;4186078;28;20041;-80
2023/01/25 02:09:17;;;;;;;32.70;12.40;;;0.20;99.90;;;;;;4169326;28;20129;-81
2023/01/25 02:11:25;;;;;;;30.60;12.88;;;0.20;99.90;;;;;;4185496;28;20100;-81
2023/01/25 02:13:27;;;;;;;29.27;13.15;;;0.10;99.90;;;;;;4188918;28;20080;-81
2023/01/25 02:15:37;;;;;;;29.40;12.40;;;0.30;99.90;;;;;;4172308;28;20045;-82
2023/01/25 02:17:40;;;;;;;30.90;13.30;;;0.40;99.90;;;;;;4172661;28;20045;-81
2023/01/25 02:20:06;;;;;;;32.97;13.40;;;1.80;99.90;;;;;;4191072;28;20040;-81
2023/01/25 02:22:12;;;;;;;31.73;12.13;;;0.20;99.90;;;;;;4190744;28;20066;-81
2023/01/25 02:24:22;;;;;;;29.42;12.23;;;0.20;99.90;;;;;;4190979;28;20574;-81
2023/01/25 02:26:24;;;;;;;31.13;12.27;;;1.70;99.90;;;;;;4188998;28;20120;-81
2023/01/25 02:28:49;;;;;;;26.85;11.65;;;1.80;99.90;;;;;;4190652;28;20068;-81
2023/01/25 02:30:51;;;;;;;26.80;12.02;;;0.00;99.90;;;;;;4191340;28;20041;-81
2023/01/25 02:32:54;;;;;;;29.85;12.68;;;0.60;99.90;;;;;;4190763;28;20086;-81
2023/01/25 02:34:55;;;;;;;30.77;12.88;;;0.00;99.90;;;;;;4190551;28;20087;-81
2023/01/25 02:36:56;;;;;;;28.45;11.95;;;0.20;99.90;;;;;;4190762;28;20045;-81
2023/01/25 02:38:59;;;;;;;30.20;13.52;;;0.60;99.90;;;;;;4189820;28;20049;-81
2023/01/25 02:41:28;;;;;;;25.92;11.18;;;0.00;99.90;;;;;;4190694;28;20101;-81
2023/01/25 02:43:33;;;;;;;31.38;12.82;;;0.90;99.90;;;;;;4162243;28;20057;-81
2023/01/25 02:45:35;;;;;;;34.55;14.18;;;0.20;99.90;;;;;;4190209;28;20049;-81
2023/01/25 02:47:36;;;;;;;34.05;13.15;;;1.20;99.90;;;;;;4189877;28;20041;-81
2023/01/25 02:49:38;;;;;;;31.42;12.90;;;1.90;99.90;;;;;;4188341;28;20095;-81
2023/01/25 02:51:45;;;;;;;30.55;12.07;;;2.00;99.90;;;;;;4189678;28;20102;-81
2023/01/25 02:53:47;;;;;;;29.70;12.80;;;0.10;99.90;;;;;;4190388;28;20044;-82
2023/01/25 02:55:48;;;;;;;38.20;15.07;;;0.20;99.90;;;;;;4189168;28;20178;-82
2023/01/25 02:57:51;;;;;;;36.60;14.75;;;-1.50;99.90;;;;;;4189321;28;20049;-82
2023/01/25 02:59:53;;;;;;;33.72;14.00;;;0.00;99.90;;;;;;4189044;28;20041;-82
2023/01/25 03:01:56;;;;;;;32.88;13.27;;;0.20;99.90;;;;;;4190260;28;20045;-82
2023/01/25 03:03:56;;;;;;;35.25;13.18;;;0.50;99.90;;;;;;4173060;28;20045;-82
2023/01/25 03:05:59;;;;;;;31.17;12.95;;;1.80;99.90;;;;;;4191109;28;20072;-82
2023/01/25 03:08:02;;;;;;;37.67;14.13;;;-1.40;99.90;;;;;;4189415;28;20489;-82
2023/01/25 03:10:04;;;;;;;37.75;14.77;;;0.00;99.90;;;;;;4190773;28;20055;-82
2023/01/25 03:12:05;;;;;;;35.47;13.95;;;0.10;99.90;;;;;;4174404;28;20054;-82
2023/01/25 03:14:07;;;;;;;33.72;13.50;;;0.10;99.90;;;;;;4174239;28;20045;-82
2023/01/25 03:16:11;;;;;;;35.47;14.93;;;0.00;99.90;;;;;;4174520;28;20037;-82
2023/01/25 03:18:12;;;;;;;34.42;13.68;;;-0.20;99.90;;;;;;4156569;28;20054;-82
2023/01/25 03:20:15;;;;;;;38.13;14.82;;;1.80;99.90;;;;;;4157149;28;20080;-82
2023/01/25 03:22:17;;;;;;;35.47;14.93;;;-0.30;99.90;;;;;;4155603;28;20151;-82
2023/01/25 03:24:17;;;;;;;38.75;15.52;;;1.50;99.90;;;;;;4158019;28;20265;-82
2023/01/25 03:26:21;;;;;;;40.78;15.63;;;0.80;99.90;;;;;;4189694;28;20071;-82
2023/01/25 03:28:23;;;;;;;38.70;15.88;;;1.10;99.90;;;;;;4174568;28;20114;-82
2023/01/25 03:30:23;;;;;;;39.00;14.82;;;-0.50;99.90;;;;;;4172818;28;20053;-82
2023/01/25 03:32:24;;;;;;;40.38;14.93;;;-0.20;99.90;;;;;;4172906;28;20076;-82
2023/01/25 03:34:26;;;;;;;43.15;15.75;;;1.80;99.90;;;;;;4174112;28;20128;-81
2023/01/25 03:36:29;;;;;;;40.80;15.98;;;0.00;99.90;;;;;;4173140;28;20084;-82
2023/01/25 03:38:31;;;;;;;42.58;16.50;;;0.90;99.90;;;;;;4174411;28;20081;-82
2023/01/25 03:40:32;;;;;;;44.47;17.02;;;-0.20;99.90;;;;;;4173278;28;20457;-81
2023/01/25 03:42:34;;;;;;;47.55;18.75;;;0.50;99.90;;;;;;4157823;28;20042;-82
2023/01/25 03:44:36;;;;;;;47.05;16.88;;;0.80;99.90;;;;;;4172159;28;20083;-82
2023/01/25 03:46:42;;;;;;;47.55;18.15;;;-0.10;99.90;;;;;;4171052;28;20049;-82
2023/01/25 03:48:43;;;;;;;42.55;17.00;;;0.00;99.90;;;;;;4172038;28;20465;-82
2023/01/25 03:51:00;;;;;;;46.47;18.27;;;2.20;99.90;;;;;;4188153;28;20041;-82
2023/01/25 03:53:08;;;;;;;50.63;19.52;;;0.30;99.90;;;;;;4189308;28;20045;-83
2023/01/25 03:55:09;;;;;;;42.22;17.73;;;1.20;99.90;;;;;;4182303;28;20072;-82
2023/01/25 03:57:11;;;;;;;45.30;16.80;;;0.00;99.90;;;;;;4180566;28;20397;-83
2023/01/25 03:59:12;;;;;;;46.30;17.30;;;1.00;99.90;;;;;;4188702;28;20116;-82
2023/01/25 04:01:15;;;;;;;47.97;19.75;;;-0.10;99.90;;;;;;4187950;28;20068;-83
2023/01/25 04:03:23;;;;;;;51.25;19.90;;;-0.10;99.90;;;;;;4155918;28;20541;-83
2023/01/25 04:05:26;;;;;;;56.22;20.88;;;0.00;99.90;;;;;;4172909;28;20049;-83
2023/01/25 04:07:28;;;;;;;53.78;18.33;;;0.00;99.90;;;;;;4173392;28;20041;-83
2023/01/25 04:09:30;;;;;;;51.75;20.58;;;-0.10;99.90;;;;;;4173407;28;20049;-82
2023/01/25 04:11:31;;;;;;;49.63;19.02;;;0.00;99.90;;;;;;4155092;28;20053;-83
2023/01/25 04:13:36;;;;;;;49.17;20.70;;;2.50;99.90;;;;;;4172423;28;20067;-83
2023/01/25 04:15:37;;;;;;;52.03;19.23;;;-0.20;99.90;;;;;;4172898;28;20084;-83
2023/01/25 04:17:39;;;;;;;52.45;19.73;;;-0.20;99.90;;;;;;4181720;28;20059;-83
2023/01/25 04:19:42;;;;;;;55.38;21.40;;;-0.20;99.90;;;;;;4189468;28;20075;-83
2023/01/25 04:21:43;;;;;;;52.17;19.65;;;-0.30;99.90;;;;;;4189935;28;20033;-83
2023/01/25 04:23:44;;;;;;;55.67;19.60;;;-0.20;99.90;;;;;;4172002;28;20050;-82
2023/01/25 04:25:55;;;;;;;52.35;19.20;;;0.70;99.90;;;;;;4189322;28;20041;-82
2023/01/25 04:27:56;;;;;;;50.60;20.25;;;-0.20;99.90;;;;;;4189876;28;20559;-83
2023/01/25 04:29:57;;;;;;;53.70;19.63;;;0.80;99.90;;;;;;4188825;28;20124;-83
2023/01/25 04:31:59;;;;;;;52.50;20.33;;;1.60;99.90;;;;;;4189398;28;20037;-82
2023/01/25 04:34:01;;;;;;;52.55;19.13;;;1.60;99.90;;;;;;4188581;28;20036;-83
2023/01/25 04:36:02;;;;;;;54.13;19.60;;;-0.40;99.90;;;;;;4188177;28;20064;-83
2023/01/25 04:38:05;;;;;;;55.33;21.00;;;-0.40;99.90;;;;;;4189014;28;20048;-83
2023/01/25 04:40:09;;;;;;;51.85;19.00;;;-0.30;99.90;;;;;;4173229;28;20048;-83
2023/01/25 04:42:11;;;;;;;46.30;18.50;;;-0.30;99.90;;;;;;4172367;28;20045;-82
2023/01/25 04:44:12;;;;;;;51.22;19.02;;;-0.50;99.90;;;;;;4187674;28;20076;-82
2023/01/25 04:46:14;;;;;;;50.70;19.20;;;-0.30;99.90;;;;;;4188007;28;20049;-83
2023/01/25 04:48:15;;;;;;;50.70;18.48;;;1.40;99.90;;;;;;4171850;28;20053;-82
2023/01/25 04:50:16;;;;;;;54.35;19.17;;;0.50;99.90;;;;;;4172564;28;20053;-83
2023/01/25 04:52:22;;;;;;;55.10;19.67;;;-0.50;99.90;;;;;;4188301;28;20522;-82
2023/01/25 04:54:23;;;;;;;49.92;19.60;;;-0.60;99.90;;;;;;4173212;28;20089;-83
2023/01/25 04:56:25;;;;;;;60.35;21.75;;;0.00;99.90;;;;;;4171137;28;20057;-83
2023/01/25 04:58:27;;;;;;;51.95;18.90;;;0.80;99.90;;;;;;4171150;28;20470;-83
2023/01/25 05:00:30;;;;;;;51.33;20.65;;;0.80;99.90;;;;;;4172260;28;20052;-82
2023/01/25 05:02:30;;;;;;;58.88;20.98;;;-0.80;99.90;;;;;;4172524;28;20056;-82
2023/01/25 05:04:33;;;;;;;68.10;21.80;;;-1.10;99.90;;;;;;4153957;28;20522;-83
2023/01/25 05:06:35;;;;;;;55.15;20.92;;;-0.40;99.90;;;;;;4153691;28;20046;-81
2023/01/25 05:08:38;;;;;;;52.30;20.42;;;1.20;99.90;;;;;;4170715;28;20107;-81
2023/01/25 05:10:41;;;;;;;58.53;20.38;;;0.10;99.90;;;;;;4175803;28;20041;-81
2023/01/25 05:12:42;;;;;;;53.35;19.73;;;-0.20;99.90;;;;;;4174786;28;20045;-81
2023/01/25 05:14:44;;;;;;;57.55;21.70;;;-0.50;99.90;;;;;;4164008;28;20142;-82
2023/01/25 05:16:51;;;;;;;54.20;20.25;;;0.60;99.90;;;;;;4178030;28;20045;-82
2023/01/25 05:18:56;;;;;;;52.45;18.85;;;0.20;99.90;;;;;;4172253;28;20112;-82
2023/01/25 05:20:58;;;;;;;55.03;20.40;;;-0.30;99.90;;;;;;4171175;28;20128;-82
2023/01/25 05:23:00;;;;;;;56.58;20.85;;;-1.70;99.90;;;;;;4172414;28;20041;-82
2023/01/25 05:26:59;;;;;;;53.83;19.52;;;1.00;99.90;;;;;;4171832;28;20420;-82
2023/01/25 05:27:29;;;;;;;57.75;20.65;;;-0.70;99.90;;;;;;4172593;28;20050;-82
2023/01/25 05:29:36;;;;;;;53.38;19.95;;;-0.30;99.90;;;;;;4171597;28;20048;-82
2023/01/25 05:31:37;;;;;;;50.47;17.83;;;0.40;99.90;;;;;;4186304;28;20086;-82
2023/01/25 05:33:38;;;;;;;50.08;19.35;;;1.40;99.90;;;;;;4188895;28;20041;-82
2023/01/25 05:35:42;;;;;;;52.63;19.45;;;-0.40;99.90;;;;;;4188518;28;20451;-82
2023/01/25 05:37:44;;;;;;;54.90;18.92;;;-1.00;99.90;;;;;;4188636;28;20053;-82
2023/01/25 05:39:46;;;;;;;55.88;20.52;;;-0.40;99.90;;;;;;4171085;28;20057;-82
2023/01/25 05:41:48;;;;;;;58.97;21.58;;;-0.50;99.90;;;;;;4187305;28;20052;-81
2023/01/25 05:43:50;;;;;;;55.90;21.45;;;-0.40;99.90;;;;;;4188341;28;20437;-81
2023/01/25 05:45:53;;;;;;;55.83;20.48;;;-0.30;99.90;;;;;;4187480;28;20041;-82
2023/01/25 05:47:56;;;;;;;55.92;19.27;;;-0.30;99.90;;;;;;4188646;28;20135;-81
2023/01/25 05:49:59;;;;;;;55.05;21.77;;;-0.40;99.90;;;;;;4189166;28;20083;-80
2023/01/25 05:52:02;;;;;;;51.40;20.45;;;-0.30;99.90;;;;;;4188828;28;20044;-81
2023/01/25 05:54:07;;;;;;;58.88;21.90;;;-0.40;99.90;;;;;;4188752;28;20041;-80
2023/01/25 05:56:11;;;;;;;58.90;21.38;;;-0.50;99.90;;;;;;4187185;28;20057;-81
2023/01/25 05:58:12;;;;;;;57.50;21.00;;;-0.60;99.90;;;;;;4186317;28;20112;-81
2023/01/25 06:00:13;;;;;;;57.13;21.35;;;0.20;99.90;;;;;;4188834;28;20037;-82
2023/01/25 06:02:14;;;;;;;56.20;20.48;;;-0.30;99.90;;;;;;4187868;28;20033;-82
2023/01/25 06:04:22;;;;;;;55.58;21.73;;;-0.40;99.90;;;;;;4191418;28;20044;-82
2023/01/25 06:06:34;;;;;;;51.90;19.95;;;-0.40;99.90;;;;;;4188030;28;20093;-81
2023/01/25 06:08:36;;;;;;;55.03;18.77;;;0.00;99.90;;;;;;4189411;28;20065;-81
2023/01/25 06:10:37;;;;;;;56.45;21.77;;;-0.30;99.90;;;;;;4172265;28;20064;-82
2023/01/25 06:12:39;;;;;;;54.45;21.40;;;-0.30;99.90;;;;;;4171287;28;20049;-82
2023/01/25 06:14:43;;;;;;;56.17;20.92;;;-0.50;99.90;;;;;;4189305;28;20037;-81
2023/01/25 06:16:50;;;;;;;52.90;20.85;;;-0.40;99.90;;;;;;4187724;28;20040;-81
2023/01/25 06:18:52;;;;;;;53.67;22.48;;;-0.10;99.90;;;;;;4187415;28;20072;-81
2023/01/25 06:20:56;;;;;;;53.72;21.05;;;1.60;99.90;;;;;;4171695;28;20096;-81
2023/01/25 06:22:57;;;;;;;55.40;19.17;;;0.40;99.90;;;;;;4187193;28;20048;-81
2023/01/25 06:25:00;;;;;;;60.40;20.75;;;-0.20;99.90;;;;;;4187941;28;20128;-82
2023/01/25 06:27:02;;;;;;;51.58;19.45;;;-0.40;99.90;;;;;;4187723;28;20041;-81
2023/01/25 06:29:06;;;;;;;54.97;21.17;;;-0.60;99.90;;;;;;4187530;28;20056;-82
2023/01/25 06:31:11;;;;;;;54.85;19.58;;;-0.40;99.90;;;;;;4170971;28;20049;-81
2023/01/25 06:33:22;;;;;;;52.17;20.38;;;-0.10;99.90;;;;;;4171158;28;20057;-83
2023/01/25 06:35:25;;;;;;;48.40;19.50;;;0.00;99.90;;;;;;4171547;28;20204;-81
2023/01/25 06:37:28;;;;;;;50.38;18.38;;;1.20;99.90;;;;;;4171145;28;20076;-81
2023/01/25 06:39:33;;;;;;;56.63;19.02;;;0.80;99.90;;;;;;4171946;28;20044;-82
2023/01/25 06:41:36;;;;;;;54.05;19.33;;;-0.30;99.90;;;;;;4171974;28;20045;-82
2023/01/25 06:43:38;;;;;;;57.65;20.52;;;-0.30;99.90;;;;;;4154673;28;20085;-82
2023/01/25 06:45:39;;;;;;;54.97;19.13;;;-1.80;99.90;;;;;;4187505;28;20055;-82
2023/01/25 06:47:42;;;;;;;60.03;20.50;;;1.00;99.90;;;;;;4154693;28;20050;-82
2023/01/25 06:49:44;;;;;;;53.88;19.52;;;-0.50;99.90;;;;;;4170764;28;20049;-81
2023/01/25 06:51:45;;;;;;;52.20;19.33;;;-0.50;99.90;;;;;;4171596;28;20464;-82
2023/01/25 06:53:47;;;;;;;52.55;18.45;;;-0.80;99.90;;;;;;4172076;28;20060;-82
2023/01/25 06:55:55;;;;;;;53.33;20.85;;;-0.80;99.90;;;;;;4186570;28;20057;-82
2023/01/25 06:57:59;;;;;;;57.03;20.38;;;-0.60;99.90;;;;;;4188185;28;20487;-82
2023/01/25 07:00:01;;;;;;;57.70;20.52;;;-1.40;99.90;;;;;;4191328;28;20586;-82
2023/01/25 07:02:02;;;;;;;63.03;22.88;;;-0.50;99.90;;;;;;4192379;28;20041;-81
2023/01/25 07:04:03;;;;;;;52.83;18.40;;;-0.50;99.90;;;;;;4192669;28;20048;-82
2023/01/25 07:06:08;;;;;;;57.53;19.60;;;-0.70;99.90;;;;;;4191455;28;20040;-82
2023/01/25 07:08:11;;;;;;;41.47;15.30;;;-0.50;99.90;;;;;;4192267;28;20033;-82
2023/01/25 07:10:13;;;;;;;49.90;17.42;;;-0.50;99.90;;;;;;4192510;28;20041;-81
2023/01/25 07:12:21;;;;;;;57.42;19.58;;;-0.50;99.90;;;;;;4191360;28;20048;-82
2023/01/25 07:14:23;;;;;;;47.65;18.33;;;0.40;99.90;;;;;;4191385;28;20053;-82
2023/01/25 07:16:25;;;;;;;52.10;18.98;;;-0.80;99.90;;;;;;4175504;28;20041;-82
2023/01/25 07:18:28;;;;;;;51.78;20.23;;;-0.50;99.90;;;;;;4173381;28;20045;-82
2023/01/25 07:20:31;;;;;;;52.83;19.90;;;-1.50;99.90;;;;;;4191770;28;20489;-82
2023/01/25 07:22:33;;;;;;;53.33;20.33;;;1.10;99.90;;;;;;4191385;28;20041;-82
2023/01/25 07:24:35;;;;;;;49.55;18.77;;;0.50;99.90;;;;;;4191745;28;20041;-82
2023/01/25 07:26:37;;;;;;;52.35;18.85;;;-0.60;99.90;;;;;;4173675;28;20052;-82
2023/01/25 07:28:39;;;;;;;55.05;20.52;;;-0.70;99.90;;;;;;4190251;28;20049;-82
2023/01/25 07:30:41;;;;;;;51.47;19.30;;;-0.70;99.90;;;;;;4190799;28;20083;-82
2023/01/25 07:32:45;;;;;;;53.47;21.05;;;0.40;99.90;;;;;;4191064;28;20045;-82
2023/01/25 07:34:46;;;;;;;49.47;18.13;;;-0.70;99.90;;;;;;4190824;28;20044;-83
2023/01/25 07:36:47;;;;;;;50.95;18.90;;;-0.50;99.90;;;;;;4190458;28;20075;-83
2023/01/25 07:38:54;;;;;;;55.05;18.83;;;-0.50;99.90;;;;;;4190125;28;20073;-83
2023/01/25 07:40:56;;;;;;;55.45;19.20;;;-0.60;99.90;;;;;;4173536;28;20526;-83
2023/01/25 07:42:59;;;;;;;54.30;19.33;;;1.00;99.90;;;;;;4190511;28;20459;-83
2023/01/25 07:45:02;;;;;;;54.00;18.77;;;1.20;99.90;;;;;;4190885;28;20052;-83
2023/01/25 07:47:03;;;;;;;50.40;18.33;;;-0.50;99.90;;;;;;4191517;28;20049;-83
2023/01/25 07:49:05;;;;;;;50.45;19.35;;;-0.70;99.90;;;;;;4191035;28;20059;-83
2023/01/25 07:51:11;;;;;;;56.00;20.83;;;-0.30;99.90;;;;;;4191338;28;20503;-83
2023/01/25 07:53:20;;;;;;;54.28;19.15;;;-0.70;99.90;;;;;;4190812;28;20056;-83
2023/01/25 07:55:21;;;;;;;57.38;20.13;;;-1.90;99.90;;;;;;4173393;28;20538;-83
2023/01/25 07:57:22;;;;;;;54.15;19.88;;;0.50;99.90;;;;;;4189937;28;20052;-83
2023/01/25 07:59:23;;;;;;;52.17;20.33;;;-0.70;99.90;;;;;;4189975;28;20064;-83
2023/01/25 08:01:27;;;;;;;51.70;17.77;;;-0.40;99.90;;;;;;4189452;28;20564;-82
2023/01/25 08:03:37;;;;;;;47.72;18.90;;;1.00;99.90;;;;;;4191448;28;20041;-82
2023/01/25 08:05:43;;;;;;;46.03;17.65;;;-0.80;99.90;;;;;;4190371;28;20469;-84
2023/01/25 08:07:46;;;;;;;41.55;16.52;;;0.70;99.90;;;;;;4188147;28;20168;-82
2023/01/25 08:09:48;;;;;;;41.20;15.85;;;-0.60;99.90;;;;;;4177778;28;20426;-82
2023/01/25 08:11:52;;;;;;;48.08;16.92;;;0.50;99.90;;;;;;4173510;28;20049;-82
2023/01/25 08:13:54;;;;;;;44.80;17.52;;;1.30;99.90;;;;;;4189007;28;20044;-82
2023/01/25 08:15:56;;;;;;;41.25;16.88;;;-0.90;99.90;;;;;;4190025;28;20049;-83
2023/01/25 08:18:01;;;;;;;43.60;16.15;;;-0.60;99.90;;;;;;4172861;28;20049;-82
2023/01/25 08:20:03;;;;;;;46.65;17.38;;;-0.80;99.90;;;;;;4172401;28;20057;-82
2023/01/25 08:22:07;;;;;;;42.08;17.40;;;-0.90;99.90;;;;;;4186081;28;20101;-83
2023/01/25 08:24:08;;;;;;;49.05;16.75;;;-1.40;99.90;;;;;;4173473;28;20053;-83
2023/01/25 08:26:12;;;;;;;41.17;16.83;;;-0.60;99.90;;;;;;4190729;28;20052;-81
2023/01/25 08:28:16;;;;;;;43.55;15.73;;;0.20;99.90;;;;;;4191207;28;20891;-81
2023/01/25 08:30:17;;;;;;;41.50;16.52;;;-0.20;99.90;;;;;;4199254;28;20119;-81
2023/01/25 08:32:25;;;;;;;39.83;15.88;;;-0.80;99.90;;;;;;4177105;28;20094;-82
2023/01/25 08:34:30;;;;;;;39.42;16.48;;;-0.80;99.90;;;;;;4162852;28;20042;-81
2023/01/25 08:36:32;;;;;;;42.13;17.90;;;-0.80;99.90;;;;;;4190577;28;20049;-81
2023/01/25 08:38:37;;;;;;;43.85;17.55;;;-1.00;99.90;;;;;;4176766;28;20037;-82
2023/01/25 08:40:39;;;;;;;44.25;17.30;;;-0.90;99.90;;;;;;4190041;28;20060;-83
2023/01/25 08:42:44;;;;;;;42.72;17.88;;;0.00;99.90;;;;;;4170359;28;20046;-83
2023/01/25 08:44:47;;;;;;;38.75;14.35;;;-0.70;99.90;;;;;;4189700;28;20073;-83
2023/01/25 08:46:49;;;;;;;43.10;16.55;;;0.70;99.90;;;;;;4185063;28;20123;-83
2023/01/25 08:48:55;;;;;;;40.83;16.13;;;-0.80;99.90;;;;;;4171169;28;20065;-83
2023/01/25 08:50:55;;;;;;;44.13;17.10;;;-0.80;99.90;;;;;;4163380;28;20585;-84
2023/01/25 08:52:57;;;;;;;40.10;15.27;;;-0.70;99.90;;;;;;4191448;28;20052;-81
2023/01/25 08:54:59;;;;;;;44.22;16.23;;;-1.30;99.90;;;;;;4187065;28;20052;-83
2023/01/25 08:57:01;;;;;;;45.03;17.63;;;-0.90;99.90;;;;;;4178574;28;20181;-81
2023/01/25 08:59:06;;;;;;;46.80;18.77;;;-0.90;99.90;;;;;;4182029;28;20049;-81
2023/01/25 09:01:10;;;;;;;44.53;18.40;;;-0.70;99.90;;;;;;4187024;28;20163;-80
2023/01/25 09:03:16;;;;;;;41.13;18.10;;;-0.80;99.90;;;;;;4181245;28;20128;-81
2023/01/25 09:05:24;;;;;;;40.65;16.45;;;-0.80;99.90;;;;;;4189003;28;20049;-81
2023/01/25 09:07:36;;;;;;;42.40;16.10;;;-1.50;99.90;;;;;;4179460;28;20510;-81
2023/01/25 09:09:37;;;;;;;47.70;16.75;;;-0.80;99.90;;;;;;4185922;28;20049;-82
2023/01/25 09:11:39;;;;;;;45.25;17.67;;;-2.40;99.90;;;;;;4173974;28;20041;-82
2023/01/25 09:13:42;;;;;;;50.53;17.77;;;-1.50;99.90;;;;;;4175168;28;20045;-81
2023/01/25 09:15:44;;;;;;;44.30;16.15;;;-0.70;99.90;;;;;;4173732;28;20552;-81
2023/01/25 09:17:55;;;;;;;46.70;17.30;;;-0.90;99.90;;;;;;4186013;28;20057;-82
2023/01/25 09:19:57;;;;;;;44.25;18.85;;;-0.70;99.90;;;;;;4181763;28;20041;-82
2023/01/25 09:21:59;;;;;;;42.97;16.95;;;-1.00;99.90;;;;;;4190559;28;20488;-82
2023/01/25 09:24:01;;;;;;;43.40;16.15;;;-2.00;99.90;;;;;;4190745;28;20045;-82
2023/01/25 09:26:04;;;;;;;37.80;13.00;;;-1.00;99.90;;;;;;4192208;28;20045;-82
2023/01/25 09:28:12;;;;;;;50.65;18.27;;;-0.90;99.90;;;;;;4190563;28;20053;-82
2023/01/25 09:30:13;;;;;;;43.83;17.25;;;-0.80;99.90;;;;;;4192380;28;20037;-82
2023/01/25 09:32:15;;;;;;;44.33;17.63;;;-0.90;99.90;;;;;;4191748;28;20037;-82
2023/01/25 09:34:18;;;;;;;49.08;18.13;;;0.10;99.90;;;;;;4191452;28;20053;-81
2023/01/25 09:36:20;;;;;;;41.95;16.77;;;-2.30;99.90;;;;;;4174488;28;20530;-82
2023/01/25 09:38:23;;;;;;;47.13;17.48;;;-0.70;99.90;;;;;;4174046;28;20085;-82
2023/01/25 09:40:26;;;;;;;46.08;16.63;;;-0.60;99.90;;;;;;4191486;28;20065;-82
2023/01/25 09:42:45;;;;;;;48.35;18.55;;;-0.90;99.90;;;;;;4191225;28;20052;-82
2023/01/25 09:45:07;;;;;;;;;;;-1.90;99.90;;;;;;4192364;28;20083;-82
2023/01/25 09:47:44;;;;;;;44.90;15.32;;;-0.70;99.90;;;;;;4159951;28;20373;-82
2023/01/25 09:50:10;;;;;;;40.10;14.75;;;-0.90;99.90;;;;;;4151894;28;20060;-82
2023/01/25 09:52:42;;;;;;;49.03;18.30;;;-0.60;99.90;;;;;;4192146;28;20104;-81
2023/01/25 09:54:45;;;;;;;46.75;14.98;;;-1.00;99.90;;;;;;4191141;28;20052;-82
2023/01/25 09:56:52;;;;;;;52.45;17.60;;;-0.90;99.90;;;;;;4190588;28;20041;-82
2023/01/25 09:59:02;;;;;;;46.40;17.85;;;-0.90;99.90;;;;;;4191452;28;20060;-82
2023/01/25 10:01:26;;;;;;;44.70;14.85;;;-0.90;99.90;;;;;;4190617;28;20052;-82
2023/01/25 10:03:45;;;;;;;49.90;18.08;;;-0.10;99.90;;;;;;4178397;28;20045;-81
2023/01/25 10:05:50;;;;;;;44.33;17.08;;;-0.70;99.90;;;;;;4173939;28;20125;-84
2023/01/25 10:08:24;;;;;;;41.20;13.90;;;-0.60;99.90;;;;;;4173458;28;20053;-82
2023/01/25 10:10:41;;;;;;;46.00;17.17;;;-0.70;99.90;;;;;;4155970;28;20054;-82
2023/01/25 10:12:43;;;;;;;47.25;15.85;;;-0.80;99.90;;;;;;4156815;28;20050;-81
2023/01/25 10:14:44;;;;;;;43.60;13.02;;;1.20;99.90;;;;;;4202120;28;20056;-81
2023/01/25 10:16:57;;;;;;;46.85;15.95;;;-0.80;99.90;;;;;;4189500;28;20079;-81
2023/01/25 10:19:21;;;;;;;49.75;18.92;;;-0.70;99.90;;;;;;4189325;28;20485;-82
2023/01/25 10:21:33;;;;;;;48.83;15.48;;;-0.70;99.90;;;;;;4189983;28;20055;-82
2023/01/25 10:24:04;;;;;;;49.15;17.48;;;0.50;99.90;;;;;;4172709;28;20057;-82
2023/01/25 10:26:20;;;;;;;54.22;19.27;;;-0.70;99.90;;;;;;4190898;28;20052;-81
2023/01/25 10:28:50;;;;;;;53.10;17.25;;;-0.60;99.90;;;;;;4190349;28;20045;-82
2023/01/25 10:31:11;;;;;;;45.58;16.05;;;-1.30;99.90;;;;;;4173161;28;20124;-82
2023/01/25 10:33:17;;;;;;;44.15;15.95;;;-0.60;99.90;;;;;;4190665;28;20078;-81
2023/01/25 10:35:22;;;;;;;47.15;16.30;;;-0.80;99.90;;;;;;4194487;28;20553;-82
2023/01/25 10:37:33;;;;;;;50.53;17.10;;;-0.40;99.90;;;;;;4193484;28;20044;-81